sensor_id;sensor_type;location;lat;lon;timestamp;P1;durP1;ratioP1;P2;durP2;ratioP2
70312;SDS011;57723;51.698;5.344;2023-09-12T00:00:10;7.95;;;4.80;;
70312;SDS011;57723;51.698;5.344;2023-09-12T00:02:36;6.13;;;4.53;;
70312;SDS011;57723;51.698;5.344;2023-09-12T00:05:02;8.73;;;4.73;;
70312;SDS011;57723;51.698;5.344;2023-09-12T00:07:28;7.33;;;4.70;;
70312;SDS011;57723;51.698;5.344;2023-09-12T00:09:55;8.93;;;5.07;;
70312;SDS011;57723;51.698;5.344;2023-09-12T00:12:24;7.13;;;4.50;;
70312;SDS011;57723;51.698;5.344;2023-09-12T00:14:49;6.68;;;4.25;;
70312;SDS011;57723;51.698;5.344;2023-09-12T00:17:15;6.27;;;4.17;;
70312;SDS011;57723;51.698;5.344;2023-09-12T00:19:40;8.23;;;4.40;;
70312;SDS011;57723;51.698;5.344;2023-09-12T00:22:05;9.60;;;4.37;;
70312;SDS011;57723;51.698;5.344;2023-09-12T00:24:31;8.20;;;4.83;;
70312;SDS011;57723;51.698;5.344;2023-09-12T00:26:56;8.13;;;4.27;;
70312;SDS011;57723;51.698;5.344;2023-09-12T00:29:22;10.35;;;4.60;;
70312;SDS011;57723;51.698;5.344;2023-09-12T00:31:51;6.55;;;4.15;;
70312;SDS011;57723;51.698;5.344;2023-09-12T00:34:17;8.27;;;4.35;;
70312;SDS011;57723;51.698;5.344;2023-09-12T00:36:45;7.63;;;4.68;;
70312;SDS011;57723;51.698;5.344;2023-09-12T00:39:10;7.83;;;4.33;;
70312;SDS011;57723;51.698;5.344;2023-09-12T00:41:36;7.50;;;4.70;;
70312;SDS011;57723;51.698;5.344;2023-09-12T00:44:07;7.32;;;4.60;;
70312;SDS011;57723;51.698;5.344;2023-09-12T00:46:32;7.28;;;4.50;;
70312;SDS011;57723;51.698;5.344;2023-09-12T00:48:59;8.55;;;4.80;;
70312;SDS011;57723;51.698;5.344;2023-09-12T00:51:25;7.33;;;4.40;;
70312;SDS011;57723;51.698;5.344;2023-09-12T00:53:50;7.82;;;4.57;;
70312;SDS011;57723;51.698;5.344;2023-09-12T00:56:16;6.43;;;4.53;;
70312;SDS011;57723;51.698;5.344;2023-09-12T00:58:42;6.38;;;4.15;;
70312;SDS011;57723;51.698;5.344;2023-09-12T01:01:07;7.03;;;4.60;;
70312;SDS011;57723;51.698;5.344;2023-09-12T01:03:34;6.95;;;4.38;;
70312;SDS011;57723;51.698;5.344;2023-09-12T01:06:00;10.13;;;4.80;;
70312;SDS011;57723;51.698;5.344;2023-09-12T01:08:26;6.53;;;4.15;;
70312;SDS011;57723;51.698;5.344;2023-09-12T01:10:52;7.47;;;4.47;;
70312;SDS011;57723;51.698;5.344;2023-09-12T01:13:18;7.82;;;4.50;;
70312;SDS011;57723;51.698;5.344;2023-09-12T01:15:43;8.20;;;4.57;;
70312;SDS011;57723;51.698;5.344;2023-09-12T01:18:10;6.13;;;4.30;;
70312;SDS011;57723;51.698;5.344;2023-09-12T01:20:36;7.32;;;4.40;;
70312;SDS011;57723;51.698;5.344;2023-09-12T01:23:08;7.10;;;4.40;;
70312;SDS011;57723;51.698;5.344;2023-09-12T01:28:21;8.00;;;4.27;;
70312;SDS011;57723;51.698;5.344;2023-09-12T01:30:48;7.32;;;4.13;;
70312;SDS011;57723;51.698;5.344;2023-09-12T01:33:13;9.52;;;4.38;;
70312;SDS011;57723;51.698;5.344;2023-09-12T01:35:39;6.50;;;4.03;;
70312;SDS011;57723;51.698;5.344;2023-09-12T01:38:05;7.30;;;4.63;;
70312;SDS011;57723;51.698;5.344;2023-09-12T01:40:36;9.13;;;4.03;;
70312;SDS011;57723;51.698;5.344;2023-09-12T01:43:08;10.18;;;4.75;;
70312;SDS011;57723;51.698;5.344;2023-09-12T01:45:40;6.13;;;4.10;;
70312;SDS011;57723;51.698;5.344;2023-09-12T01:48:08;7.32;;;4.38;;
70312;SDS011;57723;51.698;5.344;2023-09-12T01:50:35;6.90;;;4.30;;
70312;SDS011;57723;51.698;5.344;2023-09-12T01:53:03;6.28;;;4.05;;
70312;SDS011;57723;51.698;5.344;2023-09-12T01:55:29;6.23;;;4.00;;
70312;SDS011;57723;51.698;5.344;2023-09-12T01:58:00;7.70;;;5.00;;
70312;SDS011;57723;51.698;5.344;2023-09-12T02:00:25;5.90;;;3.80;;
70312;SDS011;57723;51.698;5.344;2023-09-12T02:02:50;8.80;;;4.13;;
70312;SDS011;57723;51.698;5.344;2023-09-12T02:05:20;7.78;;;4.57;;
70312;SDS011;57723;51.698;5.344;2023-09-12T02:07:45;7.15;;;4.10;;
70312;SDS011;57723;51.698;5.344;2023-09-12T02:10:14;7.33;;;4.43;;
70312;SDS011;57723;51.698;5.344;2023-09-12T02:12:40;7.05;;;4.15;;
70312;SDS011;57723;51.698;5.344;2023-09-12T02:15:06;7.30;;;4.33;;
70312;SDS011;57723;51.698;5.344;2023-09-12T02:17:32;8.23;;;4.13;;
70312;SDS011;57723;51.698;5.344;2023-09-12T02:19:57;6.97;;;4.63;;
70312;SDS011;57723;51.698;5.344;2023-09-12T02:22:22;6.10;;;3.90;;
70312;SDS011;57723;51.698;5.344;2023-09-12T02:27:24;6.53;;;4.00;;
70312;SDS011;57723;51.698;5.344;2023-09-12T02:29:50;8.13;;;4.30;;
70312;SDS011;57723;51.698;5.344;2023-09-12T02:32:15;7.90;;;4.13;;
70312;SDS011;57723;51.698;5.344;2023-09-12T02:34:41;8.40;;;4.33;;
70312;SDS011;57723;51.698;5.344;2023-09-12T02:37:06;7.03;;;4.03;;
70312;SDS011;57723;51.698;5.344;2023-09-12T02:39:35;6.80;;;4.00;;
70312;SDS011;57723;51.698;5.344;2023-09-12T02:42:05;7.93;;;4.25;;
70312;SDS011;57723;51.698;5.344;2023-09-12T02:44:30;8.67;;;4.33;;
70312;SDS011;57723;51.698;5.344;2023-09-12T02:46:58;8.47;;;3.63;;
70312;SDS011;57723;51.698;5.344;2023-09-12T02:49:23;7.03;;;3.90;;
70312;SDS011;57723;51.698;5.344;2023-09-12T02:51:52;7.72;;;4.28;;
70312;SDS011;57723;51.698;5.344;2023-09-12T02:54:18;8.95;;;4.45;;
70312;SDS011;57723;51.698;5.344;2023-09-12T02:56:43;6.37;;;3.97;;
70312;SDS011;57723;51.698;5.344;2023-09-12T02:59:09;8.10;;;4.23;;
70312;SDS011;57723;51.698;5.344;2023-09-12T03:01:34;5.93;;;3.90;;
70312;SDS011;57723;51.698;5.344;2023-09-12T03:04:00;7.13;;;3.83;;
70312;SDS011;57723;51.698;5.344;2023-09-12T03:06:25;6.97;;;4.07;;
70312;SDS011;57723;51.698;5.344;2023-09-12T03:08:51;9.25;;;4.53;;
70312;SDS011;57723;51.698;5.344;2023-09-12T03:11:17;7.33;;;3.90;;
70312;SDS011;57723;51.698;5.344;2023-09-12T03:13:42;8.60;;;3.80;;
70312;SDS011;57723;51.698;5.344;2023-09-12T03:16:14;5.77;;;3.67;;
70312;SDS011;57723;51.698;5.344;2023-09-12T03:18:39;6.57;;;4.13;;
70312;SDS011;57723;51.698;5.344;2023-09-12T03:21:11;6.82;;;4.50;;
70312;SDS011;57723;51.698;5.344;2023-09-12T03:23:36;7.43;;;4.37;;
70312;SDS011;57723;51.698;5.344;2023-09-12T03:26:02;7.40;;;3.97;;
70312;SDS011;57723;51.698;5.344;2023-09-12T03:28:29;6.30;;;3.70;;
70312;SDS011;57723;51.698;5.344;2023-09-12T03:31:02;6.38;;;3.70;;
70312;SDS011;57723;51.698;5.344;2023-09-12T03:33:39;6.03;;;3.60;;
70312;SDS011;57723;51.698;5.344;2023-09-12T03:36:08;7.63;;;3.90;;
70312;SDS011;57723;51.698;5.344;2023-09-12T03:38:34;5.90;;;3.58;;
70312;SDS011;57723;51.698;5.344;2023-09-12T03:41:00;7.65;;;3.80;;
70312;SDS011;57723;51.698;5.344;2023-09-12T03:43:26;8.05;;;3.60;;
70312;SDS011;57723;51.698;5.344;2023-09-12T03:45:51;6.83;;;4.20;;
70312;SDS011;57723;51.698;5.344;2023-09-12T03:48:24;6.83;;;3.80;;
70312;SDS011;57723;51.698;5.344;2023-09-12T03:50:50;7.72;;;3.95;;
70312;SDS011;57723;51.698;5.344;2023-09-12T03:53:16;5.70;;;3.63;;
70312;SDS011;57723;51.698;5.344;2023-09-12T03:55:42;6.13;;;3.60;;
70312;SDS011;57723;51.698;5.344;2023-09-12T03:58:07;5.57;;;3.70;;
70312;SDS011;57723;51.698;5.344;2023-09-12T04:00:37;7.22;;;3.60;;
70312;SDS011;57723;51.698;5.344;2023-09-12T04:03:06;6.13;;;3.40;;
70312;SDS011;57723;51.698;5.344;2023-09-12T04:05:34;6.03;;;3.70;;
70312;SDS011;57723;51.698;5.344;2023-09-12T04:08:01;6.05;;;3.60;;
70312;SDS011;57723;51.698;5.344;2023-09-12T04:10:26;7.53;;;4.43;;
70312;SDS011;57723;51.698;5.344;2023-09-12T04:12:51;6.43;;;3.50;;
70312;SDS011;57723;51.698;5.344;2023-09-12T04:15:20;6.57;;;3.87;;
70312;SDS011;57723;51.698;5.344;2023-09-12T04:17:54;5.30;;;3.53;;
70312;SDS011;57723;51.698;5.344;2023-09-12T04:20:20;6.93;;;3.97;;
70312;SDS011;57723;51.698;5.344;2023-09-12T04:22:48;5.87;;;4.00;;
70312;SDS011;57723;51.698;5.344;2023-09-12T04:25:14;6.15;;;4.10;;
70312;SDS011;57723;51.698;5.344;2023-09-12T04:27:40;6.27;;;3.87;;
70312;SDS011;57723;51.698;5.344;2023-09-12T04:30:07;7.50;;;3.90;;
70312;SDS011;57723;51.698;5.344;2023-09-12T04:32:32;6.22;;;3.45;;
70312;SDS011;57723;51.698;5.344;2023-09-12T04:34:58;6.80;;;3.60;;
70312;SDS011;57723;51.698;5.344;2023-09-12T04:37:23;6.57;;;4.00;;
70312;SDS011;57723;51.698;5.344;2023-09-12T04:39:49;8.70;;;4.33;;
70312;SDS011;57723;51.698;5.344;2023-09-12T04:42:14;6.22;;;3.90;;
70312;SDS011;57723;51.698;5.344;2023-09-12T04:44:40;7.73;;;4.23;;
70312;SDS011;57723;51.698;5.344;2023-09-12T04:47:06;7.03;;;3.97;;
70312;SDS011;57723;51.698;5.344;2023-09-12T04:49:31;8.23;;;3.93;;
70312;SDS011;57723;51.698;5.344;2023-09-12T04:51:57;6.43;;;4.17;;
70312;SDS011;57723;51.698;5.344;2023-09-12T04:54:24;8.07;;;4.18;;
70312;SDS011;57723;51.698;5.344;2023-09-12T04:56:52;7.85;;;4.13;;
70312;SDS011;57723;51.698;5.344;2023-09-12T04:59:18;6.60;;;4.10;;
70312;SDS011;57723;51.698;5.344;2023-09-12T05:01:43;8.30;;;4.23;;
70312;SDS011;57723;51.698;5.344;2023-09-12T05:04:11;10.33;;;4.10;;
70312;SDS011;57723;51.698;5.344;2023-09-12T05:06:40;6.97;;;4.23;;
70312;SDS011;57723;51.698;5.344;2023-09-12T05:09:05;7.88;;;4.40;;
70312;SDS011;57723;51.698;5.344;2023-09-12T05:11:34;7.68;;;4.00;;
70312;SDS011;57723;51.698;5.344;2023-09-12T05:13:59;7.47;;;4.35;;
70312;SDS011;57723;51.698;5.344;2023-09-12T05:16:28;7.30;;;5.17;;
70312;SDS011;57723;51.698;5.344;2023-09-12T05:18:54;7.38;;;5.50;;
70312;SDS011;57723;51.698;5.344;2023-09-12T05:21:20;6.87;;;3.90;;
70312;SDS011;57723;51.698;5.344;2023-09-12T05:23:51;10.00;;;4.47;;
70312;SDS011;57723;51.698;5.344;2023-09-12T05:26:16;6.40;;;3.80;;
70312;SDS011;57723;51.698;5.344;2023-09-12T05:28:42;8.20;;;3.60;;
70312;SDS011;57723;51.698;5.344;2023-09-12T05:31:07;6.10;;;3.70;;
70312;SDS011;57723;51.698;5.344;2023-09-12T05:33:33;7.07;;;3.37;;
70312;SDS011;57723;51.698;5.344;2023-09-12T05:36:02;6.00;;;3.55;;
70312;SDS011;57723;51.698;5.344;2023-09-12T05:38:28;8.68;;;3.75;;
70312;SDS011;57723;51.698;5.344;2023-09-12T05:40:54;6.97;;;3.60;;
70312;SDS011;57723;51.698;5.344;2023-09-12T05:43:22;6.50;;;3.75;;
70312;SDS011;57723;51.698;5.344;2023-09-12T05:45:50;8.00;;;4.03;;
70312;SDS011;57723;51.698;5.344;2023-09-12T05:48:16;6.07;;;3.50;;
70312;SDS011;57723;51.698;5.344;2023-09-12T05:50:44;6.03;;;3.70;;
70312;SDS011;57723;51.698;5.344;2023-09-12T05:53:09;7.55;;;3.92;;
70312;SDS011;57723;51.698;5.344;2023-09-12T05:55:45;7.15;;;3.92;;
70312;SDS011;57723;51.698;5.344;2023-09-12T05:58:10;10.25;;;3.95;;
70312;SDS011;57723;51.698;5.344;2023-09-12T06:00:36;10.47;;;4.33;;
70312;SDS011;57723;51.698;5.344;2023-09-12T06:03:01;10.10;;;4.37;;
70312;SDS011;57723;51.698;5.344;2023-09-12T06:05:26;11.47;;;4.87;;
70312;SDS011;57723;51.698;5.344;2023-09-12T06:07:52;18.92;;;5.90;;
70312;SDS011;57723;51.698;5.344;2023-09-12T06:10:31;12.77;;;5.30;;
70312;SDS011;57723;51.698;5.344;2023-09-12T06:12:56;11.77;;;5.53;;
70312;SDS011;57723;51.698;5.344;2023-09-12T06:15:31;14.07;;;6.47;;
70312;SDS011;57723;51.698;5.344;2023-09-12T06:17:56;14.48;;;6.50;;
70312;SDS011;57723;51.698;5.344;2023-09-12T06:20:22;13.87;;;6.73;;
70312;SDS011;57723;51.698;5.344;2023-09-12T06:22:54;12.90;;;6.40;;
70312;SDS011;57723;51.698;5.344;2023-09-12T06:25:20;13.35;;;6.65;;
70312;SDS011;57723;51.698;5.344;2023-09-12T06:27:47;13.63;;;6.75;;
70312;SDS011;57723;51.698;5.344;2023-09-12T06:30:12;13.83;;;6.67;;
70312;SDS011;57723;51.698;5.344;2023-09-12T06:32:54;17.65;;;6.97;;
70312;SDS011;57723;51.698;5.344;2023-09-12T06:35:22;15.68;;;7.10;;
70312;SDS011;57723;51.698;5.344;2023-09-12T06:37:50;15.68;;;7.18;;
70312;SDS011;57723;51.698;5.344;2023-09-12T06:40:21;14.35;;;7.00;;
70312;SDS011;57723;51.698;5.344;2023-09-12T06:42:46;13.83;;;6.73;;
70312;SDS011;57723;51.698;5.344;2023-09-12T06:45:17;15.17;;;7.27;;
70312;SDS011;57723;51.698;5.344;2023-09-12T06:47:46;17.58;;;7.50;;
70312;SDS011;57723;51.698;5.344;2023-09-12T06:50:15;13.47;;;6.77;;
70312;SDS011;57723;51.698;5.344;2023-09-12T06:52:41;14.07;;;7.05;;
70312;SDS011;57723;51.698;5.344;2023-09-12T06:55:09;14.40;;;7.57;;
70312;SDS011;57723;51.698;5.344;2023-09-12T06:57:34;15.03;;;7.27;;
70312;SDS011;57723;51.698;5.344;2023-09-12T07:00:15;13.43;;;7.20;;
70312;SDS011;57723;51.698;5.344;2023-09-12T07:02:44;15.20;;;7.57;;
70312;SDS011;57723;51.698;5.344;2023-09-12T07:05:18;13.93;;;6.95;;
70312;SDS011;57723;51.698;5.344;2023-09-12T07:07:43;16.05;;;7.10;;
70312;SDS011;57723;51.698;5.344;2023-09-12T07:10:12;14.23;;;7.18;;
70312;SDS011;57723;51.698;5.344;2023-09-12T07:12:44;13.90;;;6.97;;
70312;SDS011;57723;51.698;5.344;2023-09-12T07:15:09;13.60;;;6.88;;
70312;SDS011;57723;51.698;5.344;2023-09-12T07:17:35;13.13;;;6.83;;
70312;SDS011;57723;51.698;5.344;2023-09-12T07:20:00;14.63;;;6.80;;
70312;SDS011;57723;51.698;5.344;2023-09-12T07:22:29;13.85;;;6.65;;
70312;SDS011;57723;51.698;5.344;2023-09-12T07:25:00;12.27;;;6.67;;
70312;SDS011;57723;51.698;5.344;2023-09-12T07:27:31;13.15;;;6.07;;
70312;SDS011;57723;51.698;5.344;2023-09-12T07:29:59;10.70;;;5.88;;
70312;SDS011;57723;51.698;5.344;2023-09-12T07:32:37;12.35;;;5.95;;
70312;SDS011;57723;51.698;5.344;2023-09-12T07:35:03;12.83;;;5.90;;
70312;SDS011;57723;51.698;5.344;2023-09-12T07:37:37;12.45;;;5.80;;
70312;SDS011;57723;51.698;5.344;2023-09-12T07:40:13;12.82;;;6.07;;
70312;SDS011;57723;51.698;5.344;2023-09-12T07:42:41;12.53;;;5.77;;
70312;SDS011;57723;51.698;5.344;2023-09-12T07:45:22;10.30;;;5.90;;
70312;SDS011;57723;51.698;5.344;2023-09-12T07:47:51;10.00;;;5.70;;
70312;SDS011;57723;51.698;5.344;2023-09-12T07:50:18;11.07;;;5.80;;
70312;SDS011;57723;51.698;5.344;2023-09-12T07:52:44;11.90;;;5.55;;
70312;SDS011;57723;51.698;5.344;2023-09-12T07:55:12;14.53;;;6.27;;
70312;SDS011;57723;51.698;5.344;2023-09-12T07:57:38;12.80;;;6.25;;
70312;SDS011;57723;51.698;5.344;2023-09-12T08:00:20;11.73;;;6.35;;
70312;SDS011;57723;51.698;5.344;2023-09-12T08:02:48;11.03;;;6.17;;
70312;SDS011;57723;51.698;5.344;2023-09-12T08:05:17;12.77;;;5.82;;
70312;SDS011;57723;51.698;5.344;2023-09-12T08:07:44;10.38;;;6.03;;
70312;SDS011;57723;51.698;5.344;2023-09-12T08:10:33;12.50;;;6.03;;
70312;SDS011;57723;51.698;5.344;2023-09-12T08:13:07;10.57;;;6.10;;
70312;SDS011;57723;51.698;5.344;2023-09-12T08:15:45;13.00;;;6.23;;
70312;SDS011;57723;51.698;5.344;2023-09-12T08:18:13;12.68;;;6.55;;
70312;SDS011;57723;51.698;5.344;2023-09-12T08:20:39;12.38;;;6.40;;
70312;SDS011;57723;51.698;5.344;2023-09-12T08:23:06;13.30;;;6.67;;
70312;SDS011;57723;51.698;5.344;2023-09-12T08:25:33;9.10;;;5.65;;
70312;SDS011;57723;51.698;5.344;2023-09-12T08:27:59;11.65;;;5.78;;
70312;SDS011;57723;51.698;5.344;2023-09-12T08:30:26;11.67;;;6.00;;
70312;SDS011;57723;51.698;5.344;2023-09-12T08:32:58;12.68;;;6.38;;
70312;SDS011;57723;51.698;5.344;2023-09-12T08:35:23;10.75;;;5.53;;
70312;SDS011;57723;51.698;5.344;2023-09-12T08:37:51;10.73;;;6.10;;
70312;SDS011;57723;51.698;5.344;2023-09-12T08:40:19;14.13;;;6.00;;
70312;SDS011;57723;51.698;5.344;2023-09-12T08:42:58;14.17;;;6.20;;
70312;SDS011;57723;51.698;5.344;2023-09-12T08:45:41;11.60;;;5.85;;
70312;SDS011;57723;51.698;5.344;2023-09-12T08:48:09;10.63;;;6.18;;
70312;SDS011;57723;51.698;5.344;2023-09-12T08:50:41;13.43;;;6.28;;
70312;SDS011;57723;51.698;5.344;2023-09-12T08:53:07;12.15;;;6.50;;
70312;SDS011;57723;51.698;5.344;2023-09-12T08:55:35;12.87;;;6.60;;
70312;SDS011;57723;51.698;5.344;2023-09-12T08:58:02;10.98;;;5.97;;
70312;SDS011;57723;51.698;5.344;2023-09-12T09:00:29;15.80;;;6.50;;
70312;SDS011;57723;51.698;5.344;2023-09-12T09:03:03;11.87;;;5.60;;
70312;SDS011;57723;51.698;5.344;2023-09-12T09:05:29;9.32;;;5.15;;
70312;SDS011;57723;51.698;5.344;2023-09-12T09:07:56;11.07;;;5.70;;
70312;SDS011;57723;51.698;5.344;2023-09-12T09:10:54;10.02;;;5.18;;
70312;SDS011;57723;51.698;5.344;2023-09-12T09:13:31;14.00;;;6.30;;
70312;SDS011;57723;51.698;5.344;2023-09-12T09:21:30;13.32;;;6.68;;
70312;SDS011;57723;51.698;5.344;2023-09-12T09:23:58;12.50;;;6.25;;
70312;SDS011;57723;51.698;5.344;2023-09-12T09:26:41;12.50;;;6.27;;
70312;SDS011;57723;51.698;5.344;2023-09-12T09:29:12;12.13;;;5.70;;
70312;SDS011;57723;51.698;5.344;2023-09-12T09:31:50;12.93;;;5.80;;
70312;SDS011;57723;51.698;5.344;2023-09-12T09:34:16;11.50;;;5.63;;
70312;SDS011;57723;51.698;5.344;2023-09-12T09:36:51;9.63;;;5.68;;
70312;SDS011;57723;51.698;5.344;2023-09-12T09:39:17;9.40;;;5.70;;
70312;SDS011;57723;51.698;5.344;2023-09-12T09:41:42;12.07;;;5.95;;
70312;SDS011;57723;51.698;5.344;2023-09-12T09:44:14;12.48;;;6.53;;
70312;SDS011;57723;51.698;5.344;2023-09-12T09:46:42;15.25;;;7.18;;
70312;SDS011;57723;51.698;5.344;2023-09-12T09:49:09;13.60;;;7.15;;
70312;SDS011;57723;51.698;5.344;2023-09-12T09:51:40;12.53;;;6.67;;
70312;SDS011;57723;51.698;5.344;2023-09-12T09:54:07;11.35;;;5.70;;
70312;SDS011;57723;51.698;5.344;2023-09-12T09:56:32;10.30;;;5.30;;
70312;SDS011;57723;51.698;5.344;2023-09-12T09:59:18;10.88;;;5.60;;
70312;SDS011;57723;51.698;5.344;2023-09-12T10:01:49;11.65;;;5.90;;
70312;SDS011;57723;51.698;5.344;2023-09-12T10:04:15;10.30;;;5.70;;
70312;SDS011;57723;51.698;5.344;2023-09-12T10:06:45;11.52;;;5.82;;
70312;SDS011;57723;51.698;5.344;2023-09-12T10:09:14;12.02;;;5.85;;
70312;SDS011;57723;51.698;5.344;2023-09-12T10:11:41;12.27;;;5.50;;
70312;SDS011;57723;51.698;5.344;2023-09-12T10:14:10;10.93;;;6.03;;
70312;SDS011;57723;51.698;5.344;2023-09-12T10:16:44;12.10;;;5.53;;
70312;SDS011;57723;51.698;5.344;2023-09-12T10:19:15;10.35;;;5.63;;
70312;SDS011;57723;51.698;5.344;2023-09-12T10:21:46;11.02;;;5.43;;
70312;SDS011;57723;51.698;5.344;2023-09-12T10:24:16;9.97;;;5.30;;
70312;SDS011;57723;51.698;5.344;2023-09-12T10:26:45;9.90;;;5.80;;
70312;SDS011;57723;51.698;5.344;2023-09-12T10:29:15;11.38;;;6.05;;
70312;SDS011;57723;51.698;5.344;2023-09-12T10:31:40;11.52;;;6.03;;
70312;SDS011;57723;51.698;5.344;2023-09-12T10:34:10;11.47;;;6.27;;
70312;SDS011;57723;51.698;5.344;2023-09-12T10:36:40;12.10;;;5.78;;
70312;SDS011;57723;51.698;5.344;2023-09-12T10:39:07;13.30;;;7.10;;
70312;SDS011;57723;51.698;5.344;2023-09-12T10:41:37;13.50;;;6.80;;
70312;SDS011;57723;51.698;5.344;2023-09-12T10:44:14;15.23;;;7.50;;
70312;SDS011;57723;51.698;5.344;2023-09-12T10:46:40;13.27;;;6.72;;
70312;SDS011;57723;51.698;5.344;2023-09-12T10:49:09;13.02;;;6.75;;
70312;SDS011;57723;51.698;5.344;2023-09-12T10:51:41;12.93;;;6.10;;
70312;SDS011;57723;51.698;5.344;2023-09-12T10:54:08;10.63;;;5.82;;
70312;SDS011;57723;51.698;5.344;2023-09-12T10:56:34;12.98;;;6.40;;
70312;SDS011;57723;51.698;5.344;2023-09-12T11:01:43;11.40;;;5.82;;
70312;SDS011;57723;51.698;5.344;2023-09-12T11:06:47;10.43;;;5.72;;
70312;SDS011;57723;51.698;5.344;2023-09-12T11:11:39;9.47;;;5.07;;
70312;SDS011;57723;51.698;5.344;2023-09-12T11:14:09;10.37;;;5.20;;
70312;SDS011;57723;51.698;5.344;2023-09-12T11:16:38;10.68;;;5.38;;
70312;SDS011;57723;51.698;5.344;2023-09-12T11:19:22;9.52;;;5.30;;
70312;SDS011;57723;51.698;5.344;2023-09-12T11:21:52;12.07;;;5.20;;
70312;SDS011;57723;51.698;5.344;2023-09-12T11:24:20;8.40;;;5.20;;
70312;SDS011;57723;51.698;5.344;2023-09-12T11:27:00;8.30;;;4.63;;
70312;SDS011;57723;51.698;5.344;2023-09-12T11:29:38;9.63;;;5.07;;
70312;SDS011;57723;51.698;5.344;2023-09-12T11:32:04;9.48;;;5.10;;
70312;SDS011;57723;51.698;5.344;2023-09-12T11:37:30;9.93;;;5.18;;
70312;SDS011;57723;51.698;5.344;2023-09-12T11:40:16;9.93;;;5.07;;
70312;SDS011;57723;51.698;5.344;2023-09-12T11:42:59;8.45;;;5.15;;
70312;SDS011;57723;51.698;5.344;2023-09-12T11:45:24;7.60;;;4.63;;
70312;SDS011;57723;51.698;5.344;2023-09-12T11:47:56;8.77;;;5.15;;
70312;SDS011;57723;51.698;5.344;2023-09-12T11:50:38;8.15;;;4.90;;
70312;SDS011;57723;51.698;5.344;2023-09-12T11:53:06;10.53;;;5.20;;
70312;SDS011;57723;51.698;5.344;2023-09-12T11:55:47;7.93;;;4.70;;
70312;SDS011;57723;51.698;5.344;2023-09-12T11:58:13;9.50;;;5.30;;
70312;SDS011;57723;51.698;5.344;2023-09-12T12:00:46;9.93;;;5.30;;
70312;SDS011;57723;51.698;5.344;2023-09-12T12:03:22;8.50;;;4.85;;
70312;SDS011;57723;51.698;5.344;2023-09-12T12:05:51;7.90;;;4.70;;
70312;SDS011;57723;51.698;5.344;2023-09-12T12:08:19;9.63;;;4.82;;
70312;SDS011;57723;51.698;5.344;2023-09-12T12:10:52;7.70;;;4.50;;
70312;SDS011;57723;51.698;5.344;2023-09-12T12:13:18;8.37;;;4.63;;
70312;SDS011;57723;51.698;5.344;2023-09-12T12:15:43;8.95;;;4.60;;
70312;SDS011;57723;51.698;5.344;2023-09-12T12:18:09;8.87;;;5.00;;
70312;SDS011;57723;51.698;5.344;2023-09-12T12:20:35;8.63;;;4.80;;
70312;SDS011;57723;51.698;5.344;2023-09-12T12:23:00;8.63;;;4.50;;
70312;SDS011;57723;51.698;5.344;2023-09-12T12:25:26;6.33;;;4.27;;
70312;SDS011;57723;51.698;5.344;2023-09-12T12:27:51;7.47;;;4.50;;
70312;SDS011;57723;51.698;5.344;2023-09-12T12:30:29;7.50;;;4.40;;
70312;SDS011;57723;51.698;5.344;2023-09-12T12:32:55;8.07;;;4.35;;
70312;SDS011;57723;51.698;5.344;2023-09-12T12:35:23;7.93;;;4.63;;
70312;SDS011;57723;51.698;5.344;2023-09-12T12:37:49;8.70;;;4.85;;
70312;SDS011;57723;51.698;5.344;2023-09-12T12:40:25;8.73;;;4.32;;
70312;SDS011;57723;51.698;5.344;2023-09-12T12:42:51;7.40;;;4.00;;
70312;SDS011;57723;51.698;5.344;2023-09-12T12:45:17;7.35;;;4.32;;
70312;SDS011;57723;51.698;5.344;2023-09-12T12:47:44;8.40;;;4.38;;
70312;SDS011;57723;51.698;5.344;2023-09-12T12:50:16;6.70;;;4.23;;
70312;SDS011;57723;51.698;5.344;2023-09-12T12:52:48;7.18;;;4.20;;
70312;SDS011;57723;51.698;5.344;2023-09-12T12:55:15;6.75;;;4.40;;
70312;SDS011;57723;51.698;5.344;2023-09-12T12:57:42;7.60;;;4.30;;
70312;SDS011;57723;51.698;5.344;2023-09-12T13:00:13;8.15;;;4.45;;
70312;SDS011;57723;51.698;5.344;2023-09-12T13:02:42;7.23;;;4.40;;
70312;SDS011;57723;51.698;5.344;2023-09-12T13:05:26;8.10;;;4.63;;
70312;SDS011;57723;51.698;5.344;2023-09-12T13:07:55;9.05;;;4.55;;
70312;SDS011;57723;51.698;5.344;2023-09-12T13:10:21;8.20;;;4.30;;
70312;SDS011;57723;51.698;5.344;2023-09-12T13:12:49;8.82;;;5.00;;
70312;SDS011;57723;51.698;5.344;2023-09-12T13:15:16;7.73;;;4.40;;
70312;SDS011;57723;51.698;5.344;2023-09-12T13:17:44;8.40;;;4.57;;
70312;SDS011;57723;51.698;5.344;2023-09-12T13:20:14;7.95;;;4.43;;
70312;SDS011;57723;51.698;5.344;2023-09-12T13:22:40;7.28;;;4.05;;
70312;SDS011;57723;51.698;5.344;2023-09-12T13:25:08;7.38;;;4.40;;
70312;SDS011;57723;51.698;5.344;2023-09-12T13:27:37;7.33;;;4.50;;
70312;SDS011;57723;51.698;5.344;2023-09-12T13:30:03;7.82;;;4.35;;
70312;SDS011;57723;51.698;5.344;2023-09-12T13:32:35;8.13;;;4.30;;
70312;SDS011;57723;51.698;5.344;2023-09-12T13:37:41;7.60;;;4.22;;
70312;SDS011;57723;51.698;5.344;2023-09-12T13:40:07;7.97;;;4.73;;
70312;SDS011;57723;51.698;5.344;2023-09-12T13:42:35;8.20;;;4.33;;
70312;SDS011;57723;51.698;5.344;2023-09-12T13:45:00;8.60;;;4.25;;
70312;SDS011;57723;51.698;5.344;2023-09-12T13:47:26;7.17;;;4.50;;
70312;SDS011;57723;51.698;5.344;2023-09-12T13:49:51;7.53;;;4.23;;
70312;SDS011;57723;51.698;5.344;2023-09-12T13:52:25;6.53;;;4.07;;
70312;SDS011;57723;51.698;5.344;2023-09-12T13:54:51;8.20;;;4.15;;
70312;SDS011;57723;51.698;5.344;2023-09-12T13:57:24;7.43;;;3.72;;
70312;SDS011;57723;51.698;5.344;2023-09-12T13:59:52;6.65;;;4.07;;
70312;SDS011;57723;51.698;5.344;2023-09-12T14:02:18;6.83;;;4.17;;
70312;SDS011;57723;51.698;5.344;2023-09-12T14:04:46;9.18;;;4.88;;
70312;SDS011;57723;51.698;5.344;2023-09-12T14:07:12;7.70;;;4.88;;
70312;SDS011;57723;51.698;5.344;2023-09-12T14:09:38;8.83;;;4.67;;
70312;SDS011;57723;51.698;5.344;2023-09-12T14:12:04;9.88;;;5.25;;
70312;SDS011;57723;51.698;5.344;2023-09-12T14:14:39;9.38;;;5.30;;
70312;SDS011;57723;51.698;5.344;2023-09-12T14:17:08;11.30;;;6.22;;
70312;SDS011;57723;51.698;5.344;2023-09-12T14:19:37;12.03;;;6.50;;
70312;SDS011;57723;51.698;5.344;2023-09-12T14:22:05;10.82;;;5.82;;
70312;SDS011;57723;51.698;5.344;2023-09-12T14:24:31;9.97;;;5.27;;
70312;SDS011;57723;51.698;5.344;2023-09-12T14:26:57;9.18;;;5.05;;
70312;SDS011;57723;51.698;5.344;2023-09-12T14:29:23;8.55;;;5.28;;
70312;SDS011;57723;51.698;5.344;2023-09-12T14:31:51;8.23;;;4.60;;
70312;SDS011;57723;51.698;5.344;2023-09-12T14:34:23;6.63;;;4.38;;
70312;SDS011;57723;51.698;5.344;2023-09-12T14:36:48;7.50;;;4.75;;
70312;SDS011;57723;51.698;5.344;2023-09-12T14:39:14;7.83;;;4.83;;
70312;SDS011;57723;51.698;5.344;2023-09-12T14:41:42;6.30;;;4.05;;
70312;SDS011;57723;51.698;5.344;2023-09-12T14:44:11;8.27;;;4.45;;
70312;SDS011;57723;51.698;5.344;2023-09-12T14:46:39;8.77;;;4.90;;
70312;SDS011;57723;51.698;5.344;2023-09-12T14:49:04;7.77;;;4.30;;
70312;SDS011;57723;51.698;5.344;2023-09-12T14:51:30;9.90;;;4.33;;
70312;SDS011;57723;51.698;5.344;2023-09-12T14:53:58;8.10;;;4.60;;
70312;SDS011;57723;51.698;5.344;2023-09-12T14:56:26;7.47;;;4.40;;
70312;SDS011;57723;51.698;5.344;2023-09-12T14:58:52;8.50;;;4.60;;
70312;SDS011;57723;51.698;5.344;2023-09-12T15:01:17;8.27;;;4.60;;
70312;SDS011;57723;51.698;5.344;2023-09-12T15:03:46;8.67;;;4.83;;
70312;SDS011;57723;51.698;5.344;2023-09-12T15:06:12;7.82;;;4.53;;
70312;SDS011;57723;51.698;5.344;2023-09-12T15:08:37;9.07;;;4.80;;
70312;SDS011;57723;51.698;5.344;2023-09-12T15:11:03;8.93;;;4.80;;
70312;SDS011;57723;51.698;5.344;2023-09-12T15:13:30;7.90;;;4.80;;